sensor_id;sensor_type;location;lat;lon;timestamp;P1;durP1;ratioP1;P2;durP2;ratioP2
59876;SDS011;45749;51.140;17.184;2022-12-01T00:00:58;55.30;;;32.53;;
59876;SDS011;45749;51.140;17.184;2022-12-01T00:03:25;58.08;;;30.88;;
59876;SDS011;45749;51.140;17.184;2022-12-01T00:05:57;53.13;;;29.30;;
59876;SDS011;45749;51.140;17.184;2022-12-01T00:08:28;46.83;;;28.92;;
59876;SDS011;45749;51.140;17.184;2022-12-01T00:10:54;51.63;;;29.50;;
59876;SDS011;45749;51.140;17.184;2022-12-01T00:13:34;47.90;;;29.23;;
59876;SDS011;45749;51.140;17.184;2022-12-01T00:16:14;55.10;;;30.77;;
59876;SDS011;45749;51.140;17.184;2022-12-01T00:18:38;56.73;;;33.90;;
59876;SDS011;45749;51.140;17.184;2022-12-01T00:21:04;57.15;;;31.30;;
59876;SDS011;45749;51.140;17.184;2022-12-01T00:23:30;48.75;;;29.63;;
59876;SDS011;45749;51.140;17.184;2022-12-01T00:26:03;56.95;;;32.70;;
59876;SDS011;45749;51.140;17.184;2022-12-01T00:28:29;48.98;;;30.65;;
59876;SDS011;45749;51.140;17.184;2022-12-01T00:30:55;51.73;;;30.48;;
59876;SDS011;45749;51.140;17.184;2022-12-01T00:33:21;53.70;;;29.27;;
59876;SDS011;45749;51.140;17.184;2022-12-01T00:35:47;48.13;;;29.12;;
59876;SDS011;45749;51.140;17.184;2022-12-01T00:38:13;46.02;;;26.90;;
59876;SDS011;45749;51.140;17.184;2022-12-01T00:40:39;52.17;;;27.80;;
59876;SDS011;45749;51.140;17.184;2022-12-01T00:43:05;46.40;;;28.15;;
59876;SDS011;45749;51.140;17.184;2022-12-01T00:45:31;51.50;;;27.27;;
59876;SDS011;45749;51.140;17.184;2022-12-01T00:47:57;53.95;;;28.57;;
59876;SDS011;45749;51.140;17.184;2022-12-01T00:50:22;48.08;;;26.75;;
59876;SDS011;45749;51.140;17.184;2022-12-01T00:52:48;47.73;;;26.62;;
59876;SDS011;45749;51.140;17.184;2022-12-01T00:55:14;42.95;;;25.50;;
59876;SDS011;45749;51.140;17.184;2022-12-01T00:57:40;48.08;;;25.75;;
59876;SDS011;45749;51.140;17.184;2022-12-01T01:00:07;45.48;;;26.10;;
59876;SDS011;45749;51.140;17.184;2022-12-01T01:02:34;43.20;;;25.08;;
59876;SDS011;45749;51.140;17.184;2022-12-01T01:05:04;46.30;;;24.67;;
59876;SDS011;45749;51.140;17.184;2022-12-01T01:07:31;42.25;;;25.00;;
59876;SDS011;45749;51.140;17.184;2022-12-01T01:09:57;40.83;;;23.92;;
59876;SDS011;45749;51.140;17.184;2022-12-01T01:12:23;39.10;;;23.80;;
59876;SDS011;45749;51.140;17.184;2022-12-01T01:14:50;41.28;;;23.55;;
59876;SDS011;45749;51.140;17.184;2022-12-01T01:17:15;43.73;;;25.40;;
59876;SDS011;45749;51.140;17.184;2022-12-01T01:19:41;43.28;;;24.00;;
59876;SDS011;45749;51.140;17.184;2022-12-01T01:22:07;45.85;;;25.17;;
59876;SDS011;45749;51.140;17.184;2022-12-01T01:24:33;44.30;;;24.23;;
59876;SDS011;45749;51.140;17.184;2022-12-01T01:26:59;45.17;;;24.45;;
59876;SDS011;45749;51.140;17.184;2022-12-01T01:29:25;41.05;;;22.30;;
59876;SDS011;45749;51.140;17.184;2022-12-01T01:31:51;39.67;;;22.32;;
59876;SDS011;45749;51.140;17.184;2022-12-01T01:34:17;39.78;;;23.45;;
59876;SDS011;45749;51.140;17.184;2022-12-01T01:36:43;40.05;;;24.67;;
59876;SDS011;45749;51.140;17.184;2022-12-01T01:39:09;46.13;;;26.10;;
59876;SDS011;45749;51.140;17.184;2022-12-01T01:41:35;43.78;;;24.12;;
59876;SDS011;45749;51.140;17.184;2022-12-01T01:44:01;42.00;;;26.07;;
59876;SDS011;45749;51.140;17.184;2022-12-01T01:46:29;45.78;;;26.27;;
59876;SDS011;45749;51.140;17.184;2022-12-01T01:49:03;38.55;;;22.37;;
59876;SDS011;45749;51.140;17.184;2022-12-01T01:51:49;40.20;;;25.37;;
59876;SDS011;45749;51.140;17.184;2022-12-01T01:54:19;44.05;;;25.82;;
59876;SDS011;45749;51.140;17.184;2022-12-01T01:56:55;43.02;;;23.87;;
59876;SDS011;45749;51.140;17.184;2022-12-01T01:59:28;44.18;;;25.23;;
59876;SDS011;45749;51.140;17.184;2022-12-01T02:01:59;43.95;;;24.27;;
59876;SDS011;45749;51.140;17.184;2022-12-01T02:04:36;44.13;;;25.57;;
59876;SDS011;45749;51.140;17.184;2022-12-01T02:07:10;42.80;;;24.50;;
59876;SDS011;45749;51.140;17.184;2022-12-01T02:09:40;45.00;;;25.37;;
59876;SDS011;45749;51.140;17.184;2022-12-01T02:15:24;43.68;;;25.05;;
59876;SDS011;45749;51.140;17.184;2022-12-01T02:18:09;45.78;;;24.90;;
59876;SDS011;45749;51.140;17.184;2022-12-01T02:23:39;44.10;;;23.65;;
59876;SDS011;45749;51.140;17.184;2022-12-01T02:32:17;44.45;;;26.17;;
59876;SDS011;45749;51.140;17.184;2022-12-01T02:35:21;46.88;;;26.68;;
59876;SDS011;45749;51.140;17.184;2022-12-01T02:38:13;44.63;;;24.95;;
59876;SDS011;45749;51.140;17.184;2022-12-01T02:40:42;47.70;;;26.90;;
59876;SDS011;45749;51.140;17.184;2022-12-01T02:48:51;47.85;;;27.67;;
59876;SDS011;45749;51.140;17.184;2022-12-01T02:51:22;47.95;;;27.58;;
59876;SDS011;45749;51.140;17.184;2022-12-01T02:53:54;45.92;;;25.95;;
59876;SDS011;45749;51.140;17.184;2022-12-01T02:56:23;45.95;;;27.20;;
59876;SDS011;45749;51.140;17.184;2022-12-01T02:58:49;43.75;;;25.32;;
59876;SDS011;45749;51.140;17.184;2022-12-01T03:01:34;46.33;;;26.40;;
59876;SDS011;45749;51.140;17.184;2022-12-01T03:16:26;49.45;;;26.73;;
59876;SDS011;45749;51.140;17.184;2022-12-01T03:19:18;41.37;;;24.27;;
59876;SDS011;45749;51.140;17.184;2022-12-01T03:21:58;48.85;;;26.42;;
59876;SDS011;45749;51.140;17.184;2022-12-01T03:24:34;44.05;;;25.72;;
59876;SDS011;45749;51.140;17.184;2022-12-01T03:27:03;46.35;;;26.77;;
59876;SDS011;45749;51.140;17.184;2022-12-01T03:29:35;45.48;;;25.23;;
59876;SDS011;45749;51.140;17.184;2022-12-01T03:32:16;44.83;;;28.83;;
59876;SDS011;45749;51.140;17.184;2022-12-01T03:34:50;50.05;;;27.55;;
59876;SDS011;45749;51.140;17.184;2022-12-01T03:37:29;42.08;;;26.48;;
59876;SDS011;45749;51.140;17.184;2022-12-01T03:40:17;46.45;;;26.70;;
59876;SDS011;45749;51.140;17.184;2022-12-01T03:42:50;49.50;;;27.98;;
59876;SDS011;45749;51.140;17.184;2022-12-01T03:48:25;49.25;;;27.75;;
59876;SDS011;45749;51.140;17.184;2022-12-01T03:54:08;44.10;;;28.80;;
59876;SDS011;45749;51.140;17.184;2022-12-01T03:57:01;49.63;;;29.35;;
59876;SDS011;45749;51.140;17.184;2022-12-01T03:59:33;51.13;;;29.20;;
59876;SDS011;45749;51.140;17.184;2022-12-01T04:02:01;51.33;;;30.52;;
59876;SDS011;45749;51.140;17.184;2022-12-01T04:04:27;50.80;;;27.65;;
59876;SDS011;45749;51.140;17.184;2022-12-01T04:06:53;50.10;;;28.38;;
59876;SDS011;45749;51.140;17.184;2022-12-01T04:09:19;50.08;;;29.55;;
59876;SDS011;45749;51.140;17.184;2022-12-01T04:11:45;50.80;;;27.80;;
59876;SDS011;45749;51.140;17.184;2022-12-01T04:14:29;55.92;;;29.30;;
59876;SDS011;45749;51.140;17.184;2022-12-01T04:16:55;55.58;;;30.02;;
59876;SDS011;45749;51.140;17.184;2022-12-01T04:19:21;51.70;;;32.40;;
59876;SDS011;45749;51.140;17.184;2022-12-01T04:21:47;57.67;;;32.25;;
59876;SDS011;45749;51.140;17.184;2022-12-01T04:24:14;52.95;;;30.55;;
59876;SDS011;45749;51.140;17.184;2022-12-01T04:26:40;59.23;;;32.17;;
59876;SDS011;45749;51.140;17.184;2022-12-01T04:29:07;54.40;;;30.27;;
59876;SDS011;45749;51.140;17.184;2022-12-01T04:31:35;55.10;;;31.97;;
59876;SDS011;45749;51.140;17.184;2022-12-01T04:34:01;55.50;;;30.95;;
59876;SDS011;45749;51.140;17.184;2022-12-01T04:36:28;53.98;;;30.45;;
59876;SDS011;45749;51.140;17.184;2022-12-01T04:38:57;57.10;;;32.13;;
59876;SDS011;45749;51.140;17.184;2022-12-01T04:41:23;55.08;;;30.50;;
59876;SDS011;45749;51.140;17.184;2022-12-01T04:43:51;55.35;;;30.85;;
59876;SDS011;45749;51.140;17.184;2022-12-01T04:46:18;56.75;;;31.45;;
59876;SDS011;45749;51.140;17.184;2022-12-01T04:48:46;54.48;;;29.95;;
59876;SDS011;45749;51.140;17.184;2022-12-01T04:51:12;55.43;;;29.70;;
59876;SDS011;45749;51.140;17.184;2022-12-01T04:53:38;56.95;;;30.32;;
59876;SDS011;45749;51.140;17.184;2022-12-01T04:56:04;52.40;;;30.95;;
59876;SDS011;45749;51.140;17.184;2022-12-01T04:58:31;51.88;;;29.77;;
59876;SDS011;45749;51.140;17.184;2022-12-01T05:01:07;53.23;;;31.07;;
59876;SDS011;45749;51.140;17.184;2022-12-01T05:03:35;59.50;;;33.75;;
59876;SDS011;45749;51.140;17.184;2022-12-01T05:06:15;52.67;;;29.02;;
59876;SDS011;45749;51.140;17.184;2022-12-01T05:08:44;56.33;;;31.20;;
59876;SDS011;45749;51.140;17.184;2022-12-01T05:11:11;52.98;;;29.75;;
59876;SDS011;45749;51.140;17.184;2022-12-01T05:13:38;50.33;;;32.05;;
59876;SDS011;45749;51.140;17.184;2022-12-01T05:16:07;57.98;;;32.33;;
59876;SDS011;45749;51.140;17.184;2022-12-01T05:18:46;53.60;;;30.55;;
59876;SDS011;45749;51.140;17.184;2022-12-01T05:21:15;52.62;;;30.30;;
59876;SDS011;45749;51.140;17.184;2022-12-01T05:23:42;56.77;;;31.52;;
59876;SDS011;45749;51.140;17.184;2022-12-01T05:26:09;57.55;;;31.65;;
59876;SDS011;45749;51.140;17.184;2022-12-01T05:28:36;54.73;;;31.57;;
59876;SDS011;45749;51.140;17.184;2022-12-01T05:31:03;57.75;;;31.85;;
59876;SDS011;45749;51.140;17.184;2022-12-01T05:33:29;53.73;;;31.05;;
59876;SDS011;45749;51.140;17.184;2022-12-01T05:35:55;52.85;;;31.23;;
59876;SDS011;45749;51.140;17.184;2022-12-01T05:38:21;57.33;;;31.42;;
59876;SDS011;45749;51.140;17.184;2022-12-01T05:40:55;54.25;;;30.75;;
59876;SDS011;45749;51.140;17.184;2022-12-01T05:43:20;54.65;;;31.80;;
59876;SDS011;45749;51.140;17.184;2022-12-01T05:45:48;58.68;;;34.38;;
59876;SDS011;45749;51.140;17.184;2022-12-01T05:48:14;61.50;;;36.40;;
59876;SDS011;45749;51.140;17.184;2022-12-01T05:50:42;56.02;;;34.33;;
59876;SDS011;45749;51.140;17.184;2022-12-01T05:53:09;50.92;;;28.75;;
59876;SDS011;45749;51.140;17.184;2022-12-01T05:55:37;50.50;;;29.35;;
59876;SDS011;45749;51.140;17.184;2022-12-01T05:58:03;51.70;;;30.40;;
59876;SDS011;45749;51.140;17.184;2022-12-01T06:00:29;55.23;;;32.53;;
59876;SDS011;45749;51.140;17.184;2022-12-01T06:02:55;52.65;;;30.85;;
59876;SDS011;45749;51.140;17.184;2022-12-01T06:05:21;54.15;;;30.80;;
59876;SDS011;45749;51.140;17.184;2022-12-01T06:07:47;56.60;;;31.62;;
59876;SDS011;45749;51.140;17.184;2022-12-01T06:10:13;52.62;;;29.87;;
59876;SDS011;45749;51.140;17.184;2022-12-01T06:12:39;55.25;;;33.33;;
59876;SDS011;45749;51.140;17.184;2022-12-01T06:15:05;52.75;;;29.80;;
59876;SDS011;45749;51.140;17.184;2022-12-01T06:17:33;53.78;;;29.92;;
59876;SDS011;45749;51.140;17.184;2022-12-01T06:19:59;60.23;;;33.95;;
59876;SDS011;45749;51.140;17.184;2022-12-01T06:22:25;57.40;;;30.70;;
59876;SDS011;45749;51.140;17.184;2022-12-01T06:24:51;58.13;;;33.95;;
59876;SDS011;45749;51.140;17.184;2022-12-01T06:27:17;55.35;;;33.38;;
59876;SDS011;45749;51.140;17.184;2022-12-01T06:29:43;58.02;;;32.93;;
59876;SDS011;45749;51.140;17.184;2022-12-01T06:32:09;62.43;;;37.33;;
59876;SDS011;45749;51.140;17.184;2022-12-01T06:34:35;64.82;;;35.92;;
59876;SDS011;45749;51.140;17.184;2022-12-01T06:37:01;52.78;;;32.10;;
59876;SDS011;45749;51.140;17.184;2022-12-01T06:39:27;50.73;;;32.28;;
59876;SDS011;45749;51.140;17.184;2022-12-01T06:41:53;54.38;;;31.48;;
59876;SDS011;45749;51.140;17.184;2022-12-01T06:44:19;60.12;;;32.85;;
59876;SDS011;45749;51.140;17.184;2022-12-01T06:46:45;47.58;;;28.98;;
59876;SDS011;45749;51.140;17.184;2022-12-01T06:49:11;52.88;;;29.48;;
59876;SDS011;45749;51.140;17.184;2022-12-01T06:51:38;54.27;;;31.60;;
59876;SDS011;45749;51.140;17.184;2022-12-01T06:54:04;53.68;;;29.35;;
59876;SDS011;45749;51.140;17.184;2022-12-01T06:56:30;46.10;;;28.40;;
59876;SDS011;45749;51.140;17.184;2022-12-01T06:58:56;53.25;;;31.15;;
59876;SDS011;45749;51.140;17.184;2022-12-01T07:01:22;53.68;;;30.70;;
59876;SDS011;45749;51.140;17.184;2022-12-01T07:03:49;52.60;;;30.70;;
59876;SDS011;45749;51.140;17.184;2022-12-01T07:06:15;49.77;;;29.05;;
59876;SDS011;45749;51.140;17.184;2022-12-01T07:08:42;58.33;;;34.00;;
59876;SDS011;45749;51.140;17.184;2022-12-01T07:11:10;61.33;;;33.35;;
59876;SDS011;45749;51.140;17.184;2022-12-01T07:13:39;69.17;;;38.78;;
59876;SDS011;45749;51.140;17.184;2022-12-01T07:16:09;74.03;;;38.28;;
59876;SDS011;45749;51.140;17.184;2022-12-01T07:18:36;74.50;;;39.95;;
59876;SDS011;45749;51.140;17.184;2022-12-01T07:21:04;65.15;;;36.03;;
59876;SDS011;45749;51.140;17.184;2022-12-01T07:23:36;70.90;;;37.40;;
59876;SDS011;45749;51.140;17.184;2022-12-01T07:26:09;74.20;;;37.83;;
59876;SDS011;45749;51.140;17.184;2022-12-01T07:28:35;73.33;;;37.60;;
59876;SDS011;45749;51.140;17.184;2022-12-01T07:31:05;94.45;;;46.88;;
59876;SDS011;45749;51.140;17.184;2022-12-01T07:33:31;79.82;;;40.70;;
59876;SDS011;45749;51.140;17.184;2022-12-01T07:35:57;77.08;;;39.85;;
59876;SDS011;45749;51.140;17.184;2022-12-01T07:38:23;74.40;;;39.15;;
59876;SDS011;45749;51.140;17.184;2022-12-01T07:40:51;69.07;;;36.03;;
59876;SDS011;45749;51.140;17.184;2022-12-01T07:43:17;79.25;;;38.95;;
59876;SDS011;45749;51.140;17.184;2022-12-01T07:45:44;90.77;;;45.55;;
59876;SDS011;45749;51.140;17.184;2022-12-01T07:48:09;96.75;;;45.17;;
59876;SDS011;45749;51.140;17.184;2022-12-01T07:50:35;91.72;;;46.58;;
59876;SDS011;45749;51.140;17.184;2022-12-01T07:53:01;65.60;;;36.15;;
59876;SDS011;45749;51.140;17.184;2022-12-01T07:55:27;68.62;;;38.15;;
59876;SDS011;45749;51.140;17.184;2022-12-01T07:57:53;69.05;;;39.83;;
59876;SDS011;45749;51.140;17.184;2022-12-01T08:00:19;88.30;;;49.00;;
59876;SDS011;45749;51.140;17.184;2022-12-01T08:02:47;77.20;;;41.33;;
59876;SDS011;45749;51.140;17.184;2022-12-01T08:05:13;56.18;;;32.55;;
59876;SDS011;45749;51.140;17.184;2022-12-01T08:07:39;50.23;;;29.75;;
59876;SDS011;45749;51.140;17.184;2022-12-01T08:10:05;60.95;;;32.83;;
59876;SDS011;45749;51.140;17.184;2022-12-01T08:12:32;65.42;;;34.85;;
59876;SDS011;45749;51.140;17.184;2022-12-01T08:14:58;58.65;;;35.70;;
59876;SDS011;45749;51.140;17.184;2022-12-01T08:17:23;57.58;;;31.25;;
59876;SDS011;45749;51.140;17.184;2022-12-01T08:19:49;52.13;;;29.72;;
59876;SDS011;45749;51.140;17.184;2022-12-01T08:22:15;51.77;;;30.43;;
59876;SDS011;45749;51.140;17.184;2022-12-01T08:24:41;47.13;;;28.07;;
59876;SDS011;45749;51.140;17.184;2022-12-01T08:27:07;48.30;;;29.70;;
59876;SDS011;45749;51.140;17.184;2022-12-01T08:29:34;51.50;;;29.67;;
59876;SDS011;45749;51.140;17.184;2022-12-01T08:32:00;56.02;;;30.92;;
59876;SDS011;45749;51.140;17.184;2022-12-01T08:34:26;56.70;;;31.52;;
59876;SDS011;45749;51.140;17.184;2022-12-01T08:36:52;54.77;;;29.48;;
59876;SDS011;45749;51.140;17.184;2022-12-01T08:39:18;54.75;;;32.03;;
59876;SDS011;45749;51.140;17.184;2022-12-01T08:41:44;55.60;;;32.60;;
59876;SDS011;45749;51.140;17.184;2022-12-01T08:44:09;49.10;;;30.62;;
59876;SDS011;45749;51.140;17.184;2022-12-01T08:46:36;55.23;;;31.37;;
59876;SDS011;45749;51.140;17.184;2022-12-01T08:49:03;62.65;;;35.40;;
59876;SDS011;45749;51.140;17.184;2022-12-01T08:51:30;56.95;;;36.15;;
59876;SDS011;45749;51.140;17.184;2022-12-01T08:53:57;53.80;;;31.02;;
59876;SDS011;45749;51.140;17.184;2022-12-01T08:56:29;51.00;;;33.45;;
59876;SDS011;45749;51.140;17.184;2022-12-01T08:59:00;56.33;;;33.38;;
59876;SDS011;45749;51.140;17.184;2022-12-01T09:01:27;57.20;;;33.15;;
59876;SDS011;45749;51.140;17.184;2022-12-01T09:03:58;63.08;;;35.25;;
59876;SDS011;45749;51.140;17.184;2022-12-01T09:06:41;54.77;;;31.15;;
59876;SDS011;45749;51.140;17.184;2022-12-01T09:09:11;50.50;;;30.48;;
59876;SDS011;45749;51.140;17.184;2022-12-01T09:11:44;54.15;;;32.28;;
59876;SDS011;45749;51.140;17.184;2022-12-01T09:14:11;53.85;;;31.75;;
59876;SDS011;45749;51.140;17.184;2022-12-01T09:16:41;49.30;;;29.02;;
59876;SDS011;45749;51.140;17.184;2022-12-01T09:19:08;49.45;;;30.15;;
59876;SDS011;45749;51.140;17.184;2022-12-01T09:21:35;44.00;;;28.45;;
59876;SDS011;45749;51.140;17.184;2022-12-01T09:24:05;48.85;;;30.43;;
59876;SDS011;45749;51.140;17.184;2022-12-01T09:26:33;56.60;;;31.17;;
59876;SDS011;45749;51.140;17.184;2022-12-01T09:29:00;47.67;;;30.32;;
59876;SDS011;45749;51.140;17.184;2022-12-01T09:31:30;49.42;;;29.32;;
59876;SDS011;45749;51.140;17.184;2022-12-01T09:33:58;49.48;;;29.67;;
59876;SDS011;45749;51.140;17.184;2022-12-01T09:36:28;43.60;;;25.40;;
59876;SDS011;45749;51.140;17.184;2022-12-01T09:38:56;48.02;;;28.65;;
59876;SDS011;45749;51.140;17.184;2022-12-01T09:43:58;44.63;;;27.13;;
59876;SDS011;45749;51.140;17.184;2022-12-01T09:46:39;47.13;;;28.80;;
59876;SDS011;45749;51.140;17.184;2022-12-01T09:49:20;48.40;;;29.50;;
59876;SDS011;45749;51.140;17.184;2022-12-01T09:51:48;58.10;;;30.90;;
59876;SDS011;45749;51.140;17.184;2022-12-01T09:54:16;50.43;;;30.82;;
59876;SDS011;45749;51.140;17.184;2022-12-01T09:56:46;47.88;;;28.90;;
59876;SDS011;45749;51.140;17.184;2022-12-01T09:59:25;41.28;;;26.85;;
59876;SDS011;45749;51.140;17.184;2022-12-01T10:01:52;45.48;;;26.68;;
59876;SDS011;45749;51.140;17.184;2022-12-01T10:04:25;43.25;;;26.05;;
59876;SDS011;45749;51.140;17.184;2022-12-01T10:07:15;43.00;;;25.57;;
59876;SDS011;45749;51.140;17.184;2022-12-01T10:12:33;39.63;;;25.48;;
59876;SDS011;45749;51.140;17.184;2022-12-01T10:15:13;45.28;;;26.40;;
59876;SDS011;45749;51.140;17.184;2022-12-01T10:23:46;38.63;;;26.10;;
59876;SDS011;45749;51.140;17.184;2022-12-01T10:29:36;44.48;;;26.82;;
59876;SDS011;45749;51.140;17.184;2022-12-01T10:32:17;40.98;;;25.75;;
59876;SDS011;45749;51.140;17.184;2022-12-01T10:34:45;42.45;;;25.35;;
59876;SDS011;45749;51.140;17.184;2022-12-01T10:37:19;43.02;;;26.48;;
59876;SDS011;45749;51.140;17.184;2022-12-01T10:39:49;43.90;;;24.80;;
59876;SDS011;45749;51.140;17.184;2022-12-01T10:45:06;40.88;;;26.45;;
59876;SDS011;45749;51.140;17.184;2022-12-01T10:47:35;39.73;;;26.30;;
59876;SDS011;45749;51.140;17.184;2022-12-01T10:50:02;42.15;;;25.23;;
59876;SDS011;45749;51.140;17.184;2022-12-01T10:52:34;44.23;;;27.37;;
59876;SDS011;45749;51.140;17.184;2022-12-01T10:55:12;43.17;;;26.97;;
59876;SDS011;45749;51.140;17.184;2022-12-01T10:57:53;42.33;;;26.37;;
59876;SDS011;45749;51.140;17.184;2022-12-01T11:00:22;44.60;;;25.37;;
59876;SDS011;45749;51.140;17.184;2022-12-01T11:02:51;44.35;;;27.05;;
59876;SDS011;45749;51.140;17.184;2022-12-01T11:05:25;41.50;;;25.77;;
59876;SDS011;45749;51.140;17.184;2022-12-01T11:07:56;44.00;;;26.05;;
59876;SDS011;45749;51.140;17.184;2022-12-01T11:10:23;46.13;;;26.97;;
59876;SDS011;45749;51.140;17.184;2022-12-01T11:13:03;41.85;;;26.40;;
59876;SDS011;45749;51.140;17.184;2022-12-01T11:15:52;45.15;;;27.10;;
59876;SDS011;45749;51.140;17.184;2022-12-01T11:18:34;45.63;;;26.20;;
59876;SDS011;45749;51.140;17.184;2022-12-01T11:21:07;36.30;;;23.98;;
59876;SDS011;45749;51.140;17.184;2022-12-01T11:23:53;45.55;;;27.25;;
59876;SDS011;45749;51.140;17.184;2022-12-01T11:26:27;41.53;;;25.40;;
59876;SDS011;45749;51.140;17.184;2022-12-01T11:28:57;38.50;;;23.38;;
59876;SDS011;45749;51.140;17.184;2022-12-01T11:31:49;40.65;;;24.40;;
59876;SDS011;45749;51.140;17.184;2022-12-01T11:34:17;47.55;;;26.82;;
59876;SDS011;45749;51.140;17.184;2022-12-01T11:36:50;44.65;;;24.82;;
59876;SDS011;45749;51.140;17.184;2022-12-01T11:42:01;49.05;;;26.75;;
59876;SDS011;45749;51.140;17.184;2022-12-01T11:44:38;52.15;;;27.35;;
59876;SDS011;45749;51.140;17.184;2022-12-01T11:47:15;52.75;;;25.37;;
59876;SDS011;45749;51.140;17.184;2022-12-01T11:49:45;41.58;;;25.32;;
59876;SDS011;45749;51.140;17.184;2022-12-01T11:52:22;45.30;;;27.40;;
59876;SDS011;45749;51.140;17.184;2022-12-01T11:54:59;43.65;;;24.23;;
59876;SDS011;45749;51.140;17.184;2022-12-01T11:57:29;43.25;;;25.57;;
59876;SDS011;45749;51.140;17.184;2022-12-01T11:59:56;53.58;;;28.17;;
59876;SDS011;45749;51.140;17.184;2022-12-01T12:05:06;47.73;;;26.80;;
59876;SDS011;45749;51.140;17.184;2022-12-01T12:11:29;45.25;;;24.70;;
59876;SDS011;45749;51.140;17.184;2022-12-01T12:22:27;39.73;;;23.90;;
59876;SDS011;45749;51.140;17.184;2022-12-01T12:34:10;48.20;;;26.27;;
59876;SDS011;45749;51.140;17.184;2022-12-01T12:37:00;37.67;;;23.32;;
59876;SDS011;45749;51.140;17.184;2022-12-01T12:39:51;32.48;;;20.05;;
59876;SDS011;45749;51.140;17.184;2022-12-01T12:45:17;34.83;;;21.68;;
59876;SDS011;45749;51.140;17.184;2022-12-01T12:48:06;41.17;;;25.00;;
59876;SDS011;45749;51.140;17.184;2022-12-01T12:53:48;41.00;;;24.05;;
59876;SDS011;45749;51.140;17.184;2022-12-01T12:56:19;38.75;;;25.05;;
59876;SDS011;45749;51.140;17.184;2022-12-01T13:01:48;46.85;;;27.98;;
59876;SDS011;45749;51.140;17.184;2022-12-01T13:04:15;38.80;;;24.80;;
59876;SDS011;45749;51.140;17.184;2022-12-01T13:06:59;30.15;;;19.05;;
59876;SDS011;45749;51.140;17.184;2022-12-01T13:09:31;28.62;;;18.55;;
59876;SDS011;45749;51.140;17.184;2022-12-01T13:12:14;28.38;;;20.25;;
59876;SDS011;45749;51.140;17.184;2022-12-01T13:15:14;28.20;;;17.00;;
59876;SDS011;45749;51.140;17.184;2022-12-01T13:17:42;29.18;;;18.50;;
59876;SDS011;45749;51.140;17.184;2022-12-01T13:20:13;33.63;;;20.95;;
59876;SDS011;45749;51.140;17.184;2022-12-01T13:22:42;34.98;;;21.73;;
59876;SDS011;45749;51.140;17.184;2022-12-01T13:25:20;30.97;;;19.55;;
59876;SDS011;45749;51.140;17.184;2022-12-01T13:27:44;31.55;;;20.27;;
59876;SDS011;45749;51.140;17.184;2022-12-01T13:30:20;35.88;;;22.05;;
59876;SDS011;45749;51.140;17.184;2022-12-01T13:32:49;30.48;;;20.23;;
59876;SDS011;45749;51.140;17.184;2022-12-01T13:35:32;25.97;;;15.40;;
59876;SDS011;45749;51.140;17.184;2022-12-01T13:43:50;35.17;;;22.13;;
59876;SDS011;45749;51.140;17.184;2022-12-01T13:49:34;33.18;;;20.45;;
59876;SDS011;45749;51.140;17.184;2022-12-01T14:00:30;30.25;;;18.65;;
59876;SDS011;45749;51.140;17.184;2022-12-01T14:03:30;29.20;;;18.25;;
59876;SDS011;45749;51.140;17.184;2022-12-01T14:08:35;28.07;;;18.02;;
59876;SDS011;45749;51.140;17.184;2022-12-01T14:11:22;31.65;;;19.75;;
59876;SDS011;45749;51.140;17.184;2022-12-01T14:16:22;34.60;;;25.40;;
59876;SDS011;45749;51.140;17.184;2022-12-01T14:18:55;32.98;;;20.27;;
59876;SDS011;45749;51.140;17.184;2022-12-01T14:21:39;29.65;;;19.52;;
59876;SDS011;45749;51.140;17.184;2022-12-01T14:24:17;23.98;;;16.67;;
59876;SDS011;45749;51.140;17.184;2022-12-01T14:26:48;24.92;;;18.20;;
59876;SDS011;45749;51.140;17.184;2022-12-01T14:34:30;24.70;;;16.57;;
59876;SDS011;45749;51.140;17.184;2022-12-01T14:37:09;25.82;;;17.48;;
59876;SDS011;45749;51.140;17.184;2022-12-01T14:40:02;28.52;;;17.77;;
59876;SDS011;45749;51.140;17.184;2022-12-01T14:45:29;26.48;;;17.05;;
59876;SDS011;45749;51.140;17.184;2022-12-01T14:48:11;26.12;;;17.62;;
59876;SDS011;45749;51.140;17.184;2022-12-01T14:50:41;23.60;;;15.85;;
59876;SDS011;45749;51.140;17.184;2022-12-01T14:55:55;23.65;;;15.75;;
59876;SDS011;45749;51.140;17.184;2022-12-01T14:58:27;23.02;;;15.35;;
59876;SDS011;45749;51.140;17.184;2022-12-01T15:01:13;26.45;;;16.07;;
59876;SDS011;45749;51.140;17.184;2022-12-01T15:03:41;34.88;;;22.80;;
59876;SDS011;45749;51.140;17.184;2022-12-01T15:06:22;31.87;;;19.87;;
59876;SDS011;45749;51.140;17.184;2022-12-01T15:11:54;26.52;;;18.73;;
59876;SDS011;45749;51.140;17.184;2022-12-01T15:17:25;29.77;;;17.32;;
59876;SDS011;45749;51.140;17.184;2022-12-01T15:19:56;24.65;;;16.73;;
59876;SDS011;45749;51.140;17.184;2022-12-01T15:22:25;24.27;;;16.12;;
59876;SDS011;45749;51.140;17.184;2022-12-01T15:25:04;26.85;;;16.87;;
59876;SDS011;45749;51.140;17.184;2022-12-01T15:27:37;22.25;;;15.80;;
59876;SDS011;45749;51.140;17.184;2022-12-01T15:30:04;25.17;;;16.65;;
59876;SDS011;45749;51.140;17.184;2022-12-01T15:32:33;27.45;;;16.48;;
59876;SDS011;45749;51.140;17.184;2022-12-01T15:35:03;25.35;;;17.77;;
59876;SDS011;45749;51.140;17.184;2022-12-01T15:37:39;27.02;;;17.52;;
59876;SDS011;45749;51.140;17.184;2022-12-01T15:40:07;22.95;;;16.02;;
59876;SDS011;45749;51.140;17.184;2022-12-01T15:42:41;27.93;;;18.48;;
59876;SDS011;45749;51.140;17.184;2022-12-01T15:45:20;29.32;;;20.50;;
59876;SDS011;45749;51.140;17.184;2022-12-01T15:47:47;28.80;;;19.42;;
59876;SDS011;45749;51.140;17.184;2022-12-01T15:50:24;32.80;;;20.82;;
59876;SDS011;45749;51.140;17.184;2022-12-01T15:53:05;29.90;;;19.85;;
59876;SDS011;45749;51.140;17.184;2022-12-01T15:55:50;32.95;;;21.62;;
59876;SDS011;45749;51.140;17.184;2022-12-01T15:58:20;34.83;;;22.35;;
59876;SDS011;45749;51.140;17.184;2022-12-01T16:00:58;31.25;;;21.00;;
59876;SDS011;45749;51.140;17.184;2022-12-01T16:03:28;31.15;;;19.32;;
59876;SDS011;45749;51.140;17.184;2022-12-01T16:05:55;32.83;;;19.55;;
59876;SDS011;45749;51.140;17.184;2022-12-01T16:08:23;31.07;;;17.87;;
59876;SDS011;45749;51.140;17.184;2022-12-01T16:35:05;22.00;;;12.93;;
59876;SDS011;45749;51.140;17.184;2022-12-01T16:37:38;20.55;;;14.85;;
59876;SDS011;45749;51.140;17.184;2022-12-01T16:40:04;20.32;;;14.53;;
59876;SDS011;45749;51.140;17.184;2022-12-01T16:42:31;24.82;;;15.78;;
59876;SDS011;45749;51.140;17.184;2022-12-01T16:44:57;24.95;;;16.52;;
59876;SDS011;45749;51.140;17.184;2022-12-01T16:47:23;22.32;;;15.83;;
59876;SDS011;45749;51.140;17.184;2022-12-01T16:49:50;20.77;;;14.73;;
59876;SDS011;45749;51.140;17.184;2022-12-01T16:52:17;22.77;;;14.70;;
59876;SDS011;45749;51.140;17.184;2022-12-01T16:54:43;23.38;;;14.55;;
59876;SDS011;45749;51.140;17.184;2022-12-01T16:57:12;27.17;;;15.48;;
59876;SDS011;45749;51.140;17.184;2022-12-01T16:59:40;21.73;;;14.75;;
59876;SDS011;45749;51.140;17.184;2022-12-01T17:02:08;25.92;;;16.62;;